sensor_id;sensor_type;location;lat;lon;timestamp;temperature;humidity
71514;DHT22;59335;46.652;21.272;2023-04-24T00:02:34;22.55;35.78
71514;DHT22;59335;46.652;21.272;2023-04-24T00:05:37;22.55;35.74
71514;DHT22;59335;46.652;21.272;2023-04-24T00:08:39;22.55;35.74
71514;DHT22;59335;46.652;21.272;2023-04-24T00:11:42;22.55;35.74
71514;DHT22;59335;46.652;21.272;2023-04-24T00:14:45;22.53;35.78
71514;DHT22;59335;46.652;21.272;2023-04-24T00:17:47;22.53;35.77
71514;DHT22;59335;46.652;21.272;2023-04-24T00:20:50;22.51;35.78
71514;DHT22;59335;46.652;21.272;2023-04-24T00:23:53;22.48;35.81
71514;DHT22;59335;46.652;21.272;2023-04-24T00:26:56;22.54;35.84
71514;DHT22;59335;46.652;21.272;2023-04-24T00:29:59;22.54;35.71
71514;DHT22;59335;46.652;21.272;2023-04-24T00:33:02;22.51;35.74
71514;DHT22;59335;46.652;21.272;2023-04-24T00:36:05;22.53;35.75
71514;DHT22;59335;46.652;21.272;2023-04-24T00:39:08;22.50;35.81
71514;DHT22;59335;46.652;21.272;2023-04-24T00:42:11;22.50;35.75
71514;DHT22;59335;46.652;21.272;2023-04-24T00:45:14;22.50;35.78
71514;DHT22;59335;46.652;21.272;2023-04-24T00:48:17;22.53;35.82
71514;DHT22;59335;46.652;21.272;2023-04-24T00:51:20;22.51;35.79
71514;DHT22;59335;46.652;21.272;2023-04-24T00:54:23;22.48;35.85
71514;DHT22;59335;46.652;21.272;2023-04-24T00:57:26;22.51;35.75
71514;DHT22;59335;46.652;21.272;2023-04-24T01:00:29;22.51;35.83
71514;DHT22;59335;46.652;21.272;2023-04-24T01:03:33;22.46;35.86
71514;DHT22;59335;46.652;21.272;2023-04-24T01:06:40;22.50;35.82
71514;DHT22;59335;46.652;21.272;2023-04-24T01:09:44;22.48;35.79
71514;DHT22;59335;46.652;21.272;2023-04-24T01:12:50;22.48;35.82
71514;DHT22;59335;46.652;21.272;2023-04-24T01:15:52;22.46;35.82
71514;DHT22;59335;46.652;21.272;2023-04-24T01:18:55;22.47;35.86
71514;DHT22;59335;46.652;21.272;2023-04-24T01:21:58;22.46;35.77
71514;DHT22;59335;46.652;21.272;2023-04-24T01:25:04;22.46;35.86
71514;DHT22;59335;46.652;21.272;2023-04-24T01:28:07;22.47;35.79
71514;DHT22;59335;46.652;21.272;2023-04-24T01:31:10;22.47;35.78
71514;DHT22;59335;46.652;21.272;2023-04-24T01:34:13;22.48;35.68
71514;DHT22;59335;46.652;21.272;2023-04-24T01:37:16;22.46;35.79
71514;DHT22;59335;46.652;21.272;2023-04-24T01:40:19;22.46;35.83
71514;DHT22;59335;46.652;21.272;2023-04-24T01:43:23;22.44;35.84
71514;DHT22;59335;46.652;21.272;2023-04-24T01:46:26;22.43;35.87
71514;DHT22;59335;46.652;21.272;2023-04-24T01:49:29;22.47;35.76
71514;DHT22;59335;46.652;21.272;2023-04-24T01:52:33;22.48;35.73
71514;DHT22;59335;46.652;21.272;2023-04-24T01:55:37;22.47;35.80
71514;DHT22;59335;46.652;21.272;2023-04-24T01:58:40;22.43;35.83
71514;DHT22;59335;46.652;21.272;2023-04-24T02:01:43;22.44;35.78
71514;DHT22;59335;46.652;21.272;2023-04-24T02:04:46;22.43;35.87
71514;DHT22;59335;46.652;21.272;2023-04-24T02:07:49;22.41;35.87
71514;DHT22;59335;46.652;21.272;2023-04-24T02:10:52;22.41;35.85
71514;DHT22;59335;46.652;21.272;2023-04-24T02:13:54;22.40;35.87
71514;DHT22;59335;46.652;21.272;2023-04-24T02:16:57;22.43;35.84
71514;DHT22;59335;46.652;21.272;2023-04-24T02:20:00;22.41;35.81
71514;DHT22;59335;46.652;21.272;2023-04-24T02:23:02;22.43;35.85
71514;DHT22;59335;46.652;21.272;2023-04-24T02:26:05;22.43;35.83
71514;DHT22;59335;46.652;21.272;2023-04-24T02:29:08;22.43;35.77
71514;DHT22;59335;46.652;21.272;2023-04-24T02:32:11;22.41;35.80
71514;DHT22;59335;46.652;21.272;2023-04-24T02:35:14;22.39;35.81
71514;DHT22;59335;46.652;21.272;2023-04-24T02:38:17;22.39;35.77
71514;DHT22;59335;46.652;21.272;2023-04-24T02:41:20;22.43;35.81
71514;DHT22;59335;46.652;21.272;2023-04-24T02:44:23;22.37;35.82
71514;DHT22;59335;46.652;21.272;2023-04-24T02:47:26;22.40;35.82
71514;DHT22;59335;46.652;21.272;2023-04-24T02:50:29;22.37;35.81
71514;DHT22;59335;46.652;21.272;2023-04-24T02:53:32;22.39;35.74
71514;DHT22;59335;46.652;21.272;2023-04-24T02:56:34;22.40;35.82
71514;DHT22;59335;46.652;21.272;2023-04-24T02:59:38;22.40;35.73
71514;DHT22;59335;46.652;21.272;2023-04-24T03:02:42;22.40;35.79
71514;DHT22;59335;46.652;21.272;2023-04-24T03:05:45;22.36;35.82
71514;DHT22;59335;46.652;21.272;2023-04-24T03:08:48;22.37;35.77
71514;DHT22;59335;46.652;21.272;2023-04-24T03:11:51;22.34;35.79
71514;DHT22;59335;46.652;21.272;2023-04-24T03:14:53;22.37;35.74
71514;DHT22;59335;46.652;21.272;2023-04-24T03:17:56;22.36;35.75
71514;DHT22;59335;46.652;21.272;2023-04-24T03:20:58;22.37;35.75
71514;DHT22;59335;46.652;21.272;2023-04-24T03:24:02;22.39;35.78
71514;DHT22;59335;46.652;21.272;2023-04-24T03:27:04;22.36;35.73
71514;DHT22;59335;46.652;21.272;2023-04-24T03:30:26;22.34;35.83
71514;DHT22;59335;46.652;21.272;2023-04-24T03:33:33;22.36;35.76
71514;DHT22;59335;46.652;21.272;2023-04-24T03:36:36;22.34;35.83
71514;DHT22;59335;46.652;21.272;2023-04-24T03:39:42;22.33;35.84
71514;DHT22;59335;46.652;21.272;2023-04-24T03:42:46;22.34;35.82
71514;DHT22;59335;46.652;21.272;2023-04-24T03:45:49;22.39;35.79
71514;DHT22;59335;46.652;21.272;2023-04-24T03:48:53;22.34;35.81
71514;DHT22;59335;46.652;21.272;2023-04-24T03:52:00;22.34;35.79
71514;DHT22;59335;46.652;21.272;2023-04-24T03:55:04;22.33;35.86
71514;DHT22;59335;46.652;21.272;2023-04-24T03:58:12;22.33;35.90
71514;DHT22;59335;46.652;21.272;2023-04-24T04:01:16;22.34;35.89
71514;DHT22;59335;46.652;21.272;2023-04-24T04:04:24;22.36;35.94
71514;DHT22;59335;46.652;21.272;2023-04-24T04:07:27;22.34;35.92
71514;DHT22;59335;46.652;21.272;2023-04-24T04:10:30;22.36;35.86
71514;DHT22;59335;46.652;21.272;2023-04-24T04:13:33;22.36;35.92
71514;DHT22;59335;46.652;21.272;2023-04-24T04:16:35;22.36;35.89
71514;DHT22;59335;46.652;21.272;2023-04-24T04:19:41;22.37;35.84
71514;DHT22;59335;46.652;21.272;2023-04-24T04:22:44;22.41;35.89
71514;DHT22;59335;46.652;21.272;2023-04-24T04:25:52;22.43;35.89
71514;DHT22;59335;46.652;21.272;2023-04-24T04:28:59;22.43;35.88
71514;DHT22;59335;46.652;21.272;2023-04-24T04:32:07;22.44;35.80
71514;DHT22;59335;46.652;21.272;2023-04-24T04:35:10;22.50;35.75
71514;DHT22;59335;46.652;21.272;2023-04-24T04:38:14;22.46;35.80
71514;DHT22;59335;46.652;21.272;2023-04-24T04:41:21;22.47;35.82
71514;DHT22;59335;46.652;21.272;2023-04-24T04:44:24;22.55;35.65
71514;DHT22;59335;46.652;21.272;2023-04-24T04:47:29;22.64;35.47
71514;DHT22;59335;46.652;21.272;2023-04-24T04:50:35;22.65;35.54
71514;DHT22;59335;46.652;21.272;2023-04-24T04:53:41;22.58;35.69
71514;DHT22;59335;46.652;21.272;2023-04-24T04:56:44;22.54;35.67
71514;DHT22;59335;46.652;21.272;2023-04-24T04:59:47;22.54;35.66
71514;DHT22;59335;46.652;21.272;2023-04-24T05:03:04;22.57;35.69
71514;DHT22;59335;46.652;21.272;2023-04-24T05:06:23;22.58;35.73
71514;DHT22;59335;46.652;21.272;2023-04-24T05:09:26;22.57;35.72
71514;DHT22;59335;46.652;21.272;2023-04-24T05:12:36;22.63;35.62
71514;DHT22;59335;46.652;21.272;2023-04-24T05:15:39;22.64;35.72
71514;DHT22;59335;46.652;21.272;2023-04-24T05:18:42;22.64;35.74
71514;DHT22;59335;46.652;21.272;2023-04-24T05:21:48;22.65;35.75
71514;DHT22;59335;46.652;21.272;2023-04-24T05:24:51;22.65;35.82
71514;DHT22;59335;46.652;21.272;2023-04-24T05:28:30;22.64;35.87
71514;DHT22;59335;46.652;21.272;2023-04-24T05:31:40;22.60;36.41
71514;DHT22;59335;46.652;21.272;2023-04-24T05:34:43;22.58;36.12
71514;DHT22;59335;46.652;21.272;2023-04-24T05:37:46;22.30;37.46
71514;DHT22;59335;46.652;21.272;2023-04-24T05:40:49;22.03;37.89
71514;DHT22;59335;46.652;21.272;2023-04-24T05:43:52;21.82;38.33
71514;DHT22;59335;46.652;21.272;2023-04-24T05:46:56;21.69;38.41
71514;DHT22;59335;46.652;21.272;2023-04-24T05:49:59;21.66;38.66
71514;DHT22;59335;46.652;21.272;2023-04-24T05:53:03;21.69;38.64
71514;DHT22;59335;46.652;21.272;2023-04-24T05:56:09;21.69;38.84
71514;DHT22;59335;46.652;21.272;2023-04-24T05:59:12;21.69;38.88
71514;DHT22;59335;46.652;21.272;2023-04-24T06:02:15;21.50;39.31
71514;DHT22;59335;46.652;21.272;2023-04-24T06:05:19;21.37;39.47
71514;DHT22;59335;46.652;21.272;2023-04-24T06:08:22;21.55;39.23
71514;DHT22;59335;46.652;21.272;2023-04-24T06:11:25;21.45;39.29
71514;DHT22;59335;46.652;21.272;2023-04-24T06:14:29;21.51;39.39
71514;DHT22;59335;46.652;21.272;2023-04-24T06:18:12;21.57;39.38
71514;DHT22;59335;46.652;21.272;2023-04-24T06:21:17;21.61;39.12
71514;DHT22;59335;46.652;21.272;2023-04-24T06:24:27;21.58;39.20
71514;DHT22;59335;46.652;21.272;2023-04-24T06:27:30;21.55;39.03
71514;DHT22;59335;46.652;21.272;2023-04-24T06:30:33;21.63;38.93
71514;DHT22;59335;46.652;21.272;2023-04-24T06:33:39;21.59;38.95
71514;DHT22;59335;46.652;21.272;2023-04-24T06:36:42;21.65;38.94
71514;DHT22;59335;46.652;21.272;2023-04-24T06:39:45;21.68;39.31
71514;DHT22;59335;46.652;21.272;2023-04-24T06:42:48;21.57;39.34
71514;DHT22;59335;46.652;21.272;2023-04-24T06:45:51;21.62;39.32
71514;DHT22;59335;46.652;21.272;2023-04-24T06:48:55;21.58;39.48
71514;DHT22;59335;46.652;21.272;2023-04-24T06:52:00;21.57;40.15
71514;DHT22;59335;46.652;21.272;2023-04-24T06:55:03;21.59;40.81
71514;DHT22;59335;46.652;21.272;2023-04-24T06:58:06;21.65;41.31
71514;DHT22;59335;46.652;21.272;2023-04-24T07:01:10;21.51;42.14
71514;DHT22;59335;46.652;21.272;2023-04-24T07:04:13;21.52;42.55
71514;DHT22;59335;46.652;21.272;2023-04-24T07:07:16;21.48;42.62
71514;DHT22;59335;46.652;21.272;2023-04-24T07:10:20;21.71;42.05
71514;DHT22;59335;46.652;21.272;2023-04-24T07:13:23;21.85;41.68
71514;DHT22;59335;46.652;21.272;2023-04-24T07:16:26;21.96;41.01
71514;DHT22;59335;46.652;21.272;2023-04-24T07:19:29;22.05;40.84
71514;DHT22;59335;46.652;21.272;2023-04-24T07:22:32;22.14;40.52
71514;DHT22;59335;46.652;21.272;2023-04-24T07:25:35;22.16;40.62
71514;DHT22;59335;46.652;21.272;2023-04-24T07:28:38;22.27;40.36
71514;DHT22;59335;46.652;21.272;2023-04-24T07:31:40;22.33;40.12
71514;DHT22;59335;46.652;21.272;2023-04-24T07:34:43;22.39;39.97
71514;DHT22;59335;46.652;21.272;2023-04-24T07:37:46;22.41;39.95
71514;DHT22;59335;46.652;21.272;2023-04-24T07:40:51;22.47;39.77
71514;DHT22;59335;46.652;21.272;2023-04-24T07:43:54;22.51;39.98
71514;DHT22;59335;46.652;21.272;2023-04-24T07:46:56;22.57;39.95
71514;DHT22;59335;46.652;21.272;2023-04-24T07:49:59;22.60;40.48
71514;DHT22;59335;46.652;21.272;2023-04-24T07:53:02;22.69;41.41
71514;DHT22;59335;46.652;21.272;2023-04-24T07:56:05;22.79;41.70
71514;DHT22;59335;46.652;21.272;2023-04-24T07:59:09;22.92;42.05
71514;DHT22;59335;46.652;21.272;2023-04-24T08:02:12;23.02;42.46
71514;DHT22;59335;46.652;21.272;2023-04-24T08:05:15;23.15;42.70
71514;DHT22;59335;46.652;21.272;2023-04-24T08:08:22;23.12;42.52
71514;DHT22;59335;46.652;21.272;2023-04-24T08:11:25;23.09;42.54
71514;DHT22;59335;46.652;21.272;2023-04-24T08:14:28;23.05;42.22
71514;DHT22;59335;46.652;21.272;2023-04-24T08:17:31;23.01;42.50
71514;DHT22;59335;46.652;21.272;2023-04-24T08:20:34;22.95;42.63
71514;DHT22;59335;46.652;21.272;2023-04-24T08:23:38;22.91;42.28
71514;DHT22;59335;46.652;21.272;2023-04-24T08:26:45;22.88;42.25
71514;DHT22;59335;46.652;21.272;2023-04-24T08:29:57;22.90;42.36
71514;DHT22;59335;46.652;21.272;2023-04-24T08:33:14;22.87;42.04
71514;DHT22;59335;46.652;21.272;2023-04-24T08:36:20;22.85;41.80
71514;DHT22;59335;46.652;21.272;2023-04-24T08:39:30;22.82;42.04
71514;DHT22;59335;46.652;21.272;2023-04-24T08:42:34;22.85;41.91
71514;DHT22;59335;46.652;21.272;2023-04-24T08:45:40;22.84;41.59
71514;DHT22;59335;46.652;21.272;2023-04-24T08:48:44;22.82;42.38
71514;DHT22;59335;46.652;21.272;2023-04-24T08:51:53;22.81;42.63
71514;DHT22;59335;46.652;21.272;2023-04-24T08:55:00;22.81;42.78
71514;DHT22;59335;46.652;21.272;2023-04-24T08:58:04;22.85;42.86
71514;DHT22;59335;46.652;21.272;2023-04-24T09:01:19;22.88;42.64
71514;DHT22;59335;46.652;21.272;2023-04-24T09:04:54;22.88;42.93
71514;DHT22;59335;46.652;21.272;2023-04-24T09:08:44;22.91;42.61
71514;DHT22;59335;46.652;21.272;2023-04-24T09:11:52;22.91;42.85
71514;DHT22;59335;46.652;21.272;2023-04-24T09:14:58;22.90;43.07
71514;DHT22;59335;46.652;21.272;2023-04-24T09:18:04;22.92;42.72
71514;DHT22;59335;46.652;21.272;2023-04-24T09:21:09;22.91;42.23
71514;DHT22;59335;46.652;21.272;2023-04-24T09:24:19;22.92;42.45
71514;DHT22;59335;46.652;21.272;2023-04-24T09:27:25;22.92;42.30
71514;DHT22;59335;46.652;21.272;2023-04-24T09:30:28;22.91;42.59
71514;DHT22;59335;46.652;21.272;2023-04-24T09:33:31;22.92;42.21
71514;DHT22;59335;46.652;21.272;2023-04-24T09:36:41;22.90;42.62
71514;DHT22;59335;46.652;21.272;2023-04-24T09:40:06;22.88;42.76
71514;DHT22;59335;46.652;21.272;2023-04-24T09:43:12;22.91;42.59
71514;DHT22;59335;46.652;21.272;2023-04-24T09:46:18;22.91;42.33
71514;DHT22;59335;46.652;21.272;2023-04-24T09:49:24;22.94;42.49
71514;DHT22;59335;46.652;21.272;2023-04-24T09:52:27;22.90;42.55
71514;DHT22;59335;46.652;21.272;2023-04-24T09:55:39;22.95;42.62
71514;DHT22;59335;46.652;21.272;2023-04-24T09:58:48;22.95;42.98
71514;DHT22;59335;46.652;21.272;2023-04-24T10:01:57;22.98;42.95
71514;DHT22;59335;46.652;21.272;2023-04-24T10:05:01;23.05;43.93
71514;DHT22;59335;46.652;21.272;2023-04-24T10:08:08;22.99;43.84
71514;DHT22;59335;46.652;21.272;2023-04-24T10:11:14;23.02;43.68
71514;DHT22;59335;46.652;21.272;2023-04-24T10:14:24;23.02;43.77
71514;DHT22;59335;46.652;21.272;2023-04-24T10:17:31;23.02;43.86
71514;DHT22;59335;46.652;21.272;2023-04-24T10:20:39;23.03;43.61
71514;DHT22;59335;46.652;21.272;2023-04-24T10:23:44;23.05;43.64
71514;DHT22;59335;46.652;21.272;2023-04-24T10:27:12;23.06;43.70
71514;DHT22;59335;46.652;21.272;2023-04-24T10:30:24;23.08;43.42
71514;DHT22;59335;46.652;21.272;2023-04-24T10:33:28;22.99;43.95
71514;DHT22;59335;46.652;21.272;2023-04-24T10:36:33;22.99;43.56
71514;DHT22;59335;46.652;21.272;2023-04-24T10:39:37;22.98;43.73
71514;DHT22;59335;46.652;21.272;2023-04-24T10:42:47;23.01;43.56
71514;DHT22;59335;46.652;21.272;2023-04-24T10:46:06;23.01;43.76
71514;DHT22;59335;46.652;21.272;2023-04-24T10:49:12;23.01;43.85
71514;DHT22;59335;46.652;21.272;2023-04-24T10:52:17;23.01;44.28
71514;DHT22;59335;46.652;21.272;2023-04-24T10:55:50;23.06;44.04
71514;DHT22;59335;46.652;21.272;2023-04-24T10:58:56;23.05;43.97
71514;DHT22;59335;46.652;21.272;2023-04-24T11:02:01;23.06;44.52
71514;DHT22;59335;46.652;21.272;2023-04-24T11:05:06;23.05;44.44
71514;DHT22;59335;46.652;21.272;2023-04-24T11:08:15;23.02;44.45
71514;DHT22;59335;46.652;21.272;2023-04-24T11:11:19;23.03;44.51
71514;DHT22;59335;46.652;21.272;2023-04-24T11:14:26;23.03;44.37
71514;DHT22;59335;46.652;21.272;2023-04-24T11:17:30;22.96;44.76
71514;DHT22;59335;46.652;21.272;2023-04-24T11:20:34;23.01;44.45
71514;DHT22;59335;46.652;21.272;2023-04-24T11:23:40;22.96;44.69
71514;DHT22;59335;46.652;21.272;2023-04-24T11:26:44;23.02;44.40
71514;DHT22;59335;46.652;21.272;2023-04-24T11:33:06;22.98;44.46
71514;DHT22;59335;46.652;21.272;2023-04-24T11:36:10;22.92;44.96
71514;DHT22;59335;46.652;21.272;2023-04-24T11:39:14;22.95;44.79
71514;DHT22;59335;46.652;21.272;2023-04-24T11:42:18;22.92;44.61
71514;DHT22;59335;46.652;21.272;2023-04-24T11:45:26;22.94;44.73
71514;DHT22;59335;46.652;21.272;2023-04-24T11:48:34;22.94;45.14
71514;DHT22;59335;46.652;21.272;2023-04-24T11:51:41;22.91;45.28
71514;DHT22;59335;46.652;21.272;2023-04-24T11:54:54;22.94;45.59
71514;DHT22;59335;46.652;21.272;2023-04-24T11:57:58;22.96;45.34
71514;DHT22;59335;46.652;21.272;2023-04-24T12:01:02;22.98;45.17
71514;DHT22;59335;46.652;21.272;2023-04-24T12:04:05;22.99;44.79
71514;DHT22;59335;46.652;21.272;2023-04-24T12:07:09;22.96;44.99
71514;DHT22;59335;46.652;21.272;2023-04-24T12:10:12;22.96;44.88
71514;DHT22;59335;46.652;21.272;2023-04-24T12:13:15;22.98;44.96
71514;DHT22;59335;46.652;21.272;2023-04-24T12:16:18;22.95;44.78
71514;DHT22;59335;46.652;21.272;2023-04-24T12:19:22;22.95;44.79
71514;DHT22;59335;46.652;21.272;2023-04-24T12:22:25;22.94;44.94
71514;DHT22;59335;46.652;21.272;2023-04-24T12:25:30;22.94;44.85
71514;DHT22;59335;46.652;21.272;2023-04-24T12:28:37;22.94;44.97
71514;DHT22;59335;46.652;21.272;2023-04-24T12:31:41;22.95;44.82
71514;DHT22;59335;46.652;21.272;2023-04-24T12:34:49;22.95;44.63
71514;DHT22;59335;46.652;21.272;2023-04-24T12:38:06;22.94;44.82
71514;DHT22;59335;46.652;21.272;2023-04-24T12:41:12;22.95;44.85
71514;DHT22;59335;46.652;21.272;2023-04-24T12:44:16;22.96;44.72
71514;DHT22;59335;46.652;21.272;2023-04-24T12:47:20;22.95;44.69
71514;DHT22;59335;46.652;21.272;2023-04-24T12:50:23;22.95;44.60
71514;DHT22;59335;46.652;21.272;2023-04-24T12:53:27;22.96;44.46
71514;DHT22;59335;46.652;21.272;2023-04-24T12:56:33;22.94;44.65
71514;DHT22;59335;46.652;21.272;2023-04-24T12:59:36;22.95;44.34
71514;DHT22;59335;46.652;21.272;2023-04-24T13:02:40;22.92;44.58
71514;DHT22;59335;46.652;21.272;2023-04-24T13:05:43;22.95;44.56
71514;DHT22;59335;46.652;21.272;2023-04-24T13:08:46;22.96;44.40
71514;DHT22;59335;46.652;21.272;2023-04-24T13:11:51;22.98;44.32
71514;DHT22;59335;46.652;21.272;2023-04-24T13:14:55;22.95;44.23
71514;DHT22;59335;46.652;21.272;2023-04-24T13:17:59;22.95;44.02
71514;DHT22;59335;46.652;21.272;2023-04-24T13:21:03;22.98;44.34
71514;DHT22;59335;46.652;21.272;2023-04-24T13:24:06;22.94;44.66
71514;DHT22;59335;46.652;21.272;2023-04-24T13:27:10;22.96;44.42
71514;DHT22;59335;46.652;21.272;2023-04-24T13:30:13;22.95;44.54
71514;DHT22;59335;46.652;21.272;2023-04-24T13:33:16;22.94;44.51
71514;DHT22;59335;46.652;21.272;2023-04-24T13:36:19;22.92;45.08
71514;DHT22;59335;46.652;21.272;2023-04-24T13:39:23;22.94;44.92
71514;DHT22;59335;46.652;21.272;2023-04-24T13:42:37;22.94;44.59
71514;DHT22;59335;46.652;21.272;2023-04-24T13:45:40;22.92;45.14
71514;DHT22;59335;46.652;21.272;2023-04-24T13:48:46;22.96;45.31
71514;DHT22;59335;46.652;21.272;2023-04-24T13:51:51;22.96;45.28
71514;DHT22;59335;46.652;21.272;2023-04-24T13:54:57;22.96;44.84
71514;DHT22;59335;46.652;21.272;2023-04-24T13:58:02;22.94;45.50
71514;DHT22;59335;46.652;21.272;2023-04-24T14:01:06;22.98;45.24
71514;DHT22;59335;46.652;21.272;2023-04-24T14:04:10;22.98;45.15
71514;DHT22;59335;46.652;21.272;2023-04-24T14:07:14;22.98;45.07
71514;DHT22;59335;46.652;21.272;2023-04-24T14:10:17;22.95;44.98
71514;DHT22;59335;46.652;21.272;2023-04-24T14:13:20;22.98;45.02
71514;DHT22;59335;46.652;21.272;2023-04-24T14:16:23;22.95;45.04
71514;DHT22;59335;46.652;21.272;2023-04-24T14:19:25;22.95;45.15
71514;DHT22;59335;46.652;21.272;2023-04-24T14:22:28;22.92;45.23
71514;DHT22;59335;46.652;21.272;2023-04-24T14:25:31;22.91;45.25
71514;DHT22;59335;46.652;21.272;2023-04-24T14:28:33;22.91;45.32
71514;DHT22;59335;46.652;21.272;2023-04-24T14:31:36;22.90;45.31
71514;DHT22;59335;46.652;21.272;2023-04-24T14:34:39;22.88;45.41
71514;DHT22;59335;46.652;21.272;2023-04-24T14:37:41;22.88;45.42
71514;DHT22;59335;46.652;21.272;2023-04-24T14:40:45;22.87;45.43
71514;DHT22;59335;46.652;21.272;2023-04-24T14:44:07;22.88;45.51
71514;DHT22;59335;46.652;21.272;2023-04-24T14:47:10;22.87;45.50
71514;DHT22;59335;46.652;21.272;2023-04-24T14:50:13;22.82;45.48
71514;DHT22;59335;46.652;21.272;2023-04-24T14:53:16;22.84;45.39
71514;DHT22;59335;46.652;21.272;2023-04-24T14:56:18;22.82;45.44
71514;DHT22;59335;46.652;21.272;2023-04-24T14:59:21;22.79;45.44
71514;DHT22;59335;46.652;21.272;2023-04-24T15:02:24;22.81;45.46
71514;DHT22;59335;46.652;21.272;2023-04-24T15:05:27;22.82;45.44
71514;DHT22;59335;46.652;21.272;2023-04-24T15:08:31;22.78;45.47
71514;DHT22;59335;46.652;21.272;2023-04-24T15:11:33;22.76;45.43
71514;DHT22;59335;46.652;21.272;2023-04-24T15:14:36;22.81;45.73
71514;DHT22;59335;46.652;21.272;2023-04-24T15:17:53;22.76;46.04
71514;DHT22;59335;46.652;21.272;2023-04-24T15:20:56;22.84;46.24
71514;DHT22;59335;46.652;21.272;2023-04-24T15:23:58;22.78;47.03
71514;DHT22;59335;46.652;21.272;2023-04-24T15:27:01;22.82;47.05
71514;DHT22;59335;46.652;21.272;2023-04-24T15:30:05;22.79;47.03
71514;DHT22;59335;46.652;21.272;2023-04-24T15:33:08;22.79;47.25
71514;DHT22;59335;46.652;21.272;2023-04-24T15:36:11;22.76;47.34
71514;DHT22;59335;46.652;21.272;2023-04-24T15:39:15;22.76;47.42
71514;DHT22;59335;46.652;21.272;2023-04-24T15:42:18;22.75;47.52
71514;DHT22;59335;46.652;21.272;2023-04-24T15:45:21;22.74;47.61
71514;DHT22;59335;46.652;21.272;2023-04-24T15:48:24;22.74;47.57
71514;DHT22;59335;46.652;21.272;2023-04-24T15:51:27;22.78;47.62
71514;DHT22;59335;46.652;21.272;2023-04-24T15:54:29;22.74;47.59
71514;DHT22;59335;46.652;21.272;2023-04-24T15:57:32;22.72;47.54
71514;DHT22;59335;46.652;21.272;2023-04-24T16:00:35;22.76;47.49
71514;DHT22;59335;46.652;21.272;2023-04-24T16:03:39;22.69;47.52
71514;DHT22;59335;46.652;21.272;2023-04-24T16:06:42;22.71;47.42
71514;DHT22;59335;46.652;21.272;2023-04-24T16:09:45;22.74;47.36
71514;DHT22;59335;46.652;21.272;2023-04-24T16:12:48;22.71;47.34
71514;DHT22;59335;46.652;21.272;2023-04-24T16:15:53;22.69;47.32
71514;DHT22;59335;46.652;21.272;2023-04-24T16:18:56;22.71;47.18
71514;DHT22;59335;46.652;21.272;2023-04-24T16:21:58;22.69;47.15
71514;DHT22;59335;46.652;21.272;2023-04-24T16:25:02;22.71;47.07
71514;DHT22;59335;46.652;21.272;2023-04-24T16:28:05;22.65;47.09
71514;DHT22;59335;46.652;21.272;2023-04-24T16:31:08;22.67;46.98
71514;DHT22;59335;46.652;21.272;2023-04-24T16:34:11;22.68;47.03
71514;DHT22;59335;46.652;21.272;2023-04-24T16:37:13;22.67;47.00
71514;DHT22;59335;46.652;21.272;2023-04-24T16:40:17;22.67;46.96
71514;DHT22;59335;46.652;21.272;2023-04-24T16:43:20;22.65;46.95
71514;DHT22;59335;46.652;21.272;2023-04-24T16:46:22;22.64;46.82
71514;DHT22;59335;46.652;21.272;2023-04-24T16:49:25;22.63;46.84
71514;DHT22;59335;46.652;21.272;2023-04-24T16:52:32;22.63;46.85
71514;DHT22;59335;46.652;21.272;2023-04-24T16:55:35;22.65;46.79
71514;DHT22;59335;46.652;21.272;2023-04-24T16:58:38;22.65;46.73
71514;DHT22;59335;46.652;21.272;2023-04-24T17:01:41;22.64;46.72
71514;DHT22;59335;46.652;21.272;2023-04-24T17:04:44;22.61;46.77
71514;DHT22;59335;46.652;21.272;2023-04-24T17:07:49;22.61;46.63
71514;DHT22;59335;46.652;21.272;2023-04-24T17:10:51;22.63;46.58
71514;DHT22;59335;46.652;21.272;2023-04-24T17:13:54;22.61;46.57
71514;DHT22;59335;46.652;21.272;2023-04-24T17:16:58;22.60;46.58
71514;DHT22;59335;46.652;21.272;2023-04-24T17:20:00;22.60;46.55
71514;DHT22;59335;46.652;21.272;2023-04-24T17:23:22;22.60;46.46
71514;DHT22;59335;46.652;21.272;2023-04-24T17:26:26;22.57;46.44
71514;DHT22;59335;46.652;21.272;2023-04-24T17:29:31;22.61;46.36
71514;DHT22;59335;46.652;21.272;2023-04-24T17:32:34;22.57;46.40
71514;DHT22;59335;46.652;21.272;2023-04-24T17:35:37;22.55;46.46
71514;DHT22;59335;46.652;21.272;2023-04-24T17:38:40;22.55;46.35
71514;DHT22;59335;46.652;21.272;2023-04-24T17:41:44;22.60;46.26
71514;DHT22;59335;46.652;21.272;2023-04-24T17:44:47;22.60;46.22
71514;DHT22;59335;46.652;21.272;2023-04-24T17:47:50;22.57;46.24
71514;DHT22;59335;46.652;21.272;2023-04-24T17:50:54;22.57;46.16
71514;DHT22;59335;46.652;21.272;2023-04-24T17:53:58;22.55;46.10
71514;DHT22;59335;46.652;21.272;2023-04-24T17:57:11;22.54;46.05
71514;DHT22;59335;46.652;21.272;2023-04-24T18:00:14;22.55;46.05
71514;DHT22;59335;46.652;21.272;2023-04-24T18:03:18;22.58;45.94
71514;DHT22;59335;46.652;21.272;2023-04-24T18:06:21;22.58;45.93
71514;DHT22;59335;46.652;21.272;2023-04-24T18:09:24;22.55;45.91
71514;DHT22;59335;46.652;21.272;2023-04-24T18:12:27;22.54;45.89
71514;DHT22;59335;46.652;21.272;2023-04-24T18:15:31;22.53;45.98
71514;DHT22;59335;46.652;21.272;2023-04-24T18:18:35;22.55;45.77
71514;DHT22;59335;46.652;21.272;2023-04-24T18:21:39;22.55;45.74
71514;DHT22;59335;46.652;21.272;2023-04-24T18:24:44;22.54;45.75
71514;DHT22;59335;46.652;21.272;2023-04-24T18:27:47;22.54;45.75
71514;DHT22;59335;46.652;21.272;2023-04-24T18:30:50;22.54;45.74
71514;DHT22;59335;46.652;21.272;2023-04-24T18:33:55;22.51;45.79
71514;DHT22;59335;46.652;21.272;2023-04-24T18:36:58;22.53;45.70
71514;DHT22;59335;46.652;21.272;2023-04-24T18:40:01;22.53;45.67
71514;DHT22;59335;46.652;21.272;2023-04-24T18:43:05;22.57;45.60
71514;DHT22;59335;46.652;21.272;2023-04-24T18:46:11;22.53;45.59
71514;DHT22;59335;46.652;21.272;2023-04-24T18:49:15;22.54;45.53
71514;DHT22;59335;46.652;21.272;2023-04-24T18:52:19;22.54;45.55
71514;DHT22;59335;46.652;21.272;2023-04-24T18:55:23;22.54;45.54
71514;DHT22;59335;46.652;21.272;2023-04-24T18:58:27;22.51;45.57
71514;DHT22;59335;46.652;21.272;2023-04-24T19:01:30;22.51;45.51
71514;DHT22;59335;46.652;21.272;2023-04-24T19:04:35;22.50;45.49
71514;DHT22;59335;46.652;21.272;2023-04-24T19:07:37;22.51;45.45
71514;DHT22;59335;46.652;21.272;2023-04-24T19:10:41;22.51;45.42
71514;DHT22;59335;46.652;21.272;2023-04-24T19:13:44;22.48;45.41